createdAt,value
2023-03-04T00:01:57.258Z,101140.34
2023-03-04T00:04:23.767Z,101140.00
2023-03-04T00:06:50.215Z,101142.59
2023-03-04T00:09:16.710Z,101144.25
2023-03-04T00:11:43.174Z,101144.09
2023-03-04T00:14:09.595Z,101144.91
2023-03-04T00:16:36.026Z,101139.81
2023-03-04T00:19:02.473Z,101145.06
2023-03-04T00:21:28.959Z,101141.63
2023-03-04T00:23:55.446Z,101143.78
2023-03-04T00:26:21.905Z,101140.03
2023-03-04T00:28:48.412Z,101145.94
2023-03-04T00:31:14.919Z,101150.03
2023-03-04T00:33:43.411Z,101144.16
2023-03-04T00:36:11.116Z,101134.31
2023-03-04T00:38:37.610Z,101135.41
2023-03-04T00:41:04.199Z,101142.78
2023-03-04T00:43:32.085Z,101145.34
2023-03-04T00:45:58.586Z,101142.75
2023-03-04T00:48:25.131Z,101138.34
2023-03-04T00:50:53.856Z,101144.66
2023-03-04T00:53:21.369Z,101139.59
2023-03-04T00:55:47.807Z,101137.47
2023-03-04T00:58:14.229Z,101130.91
2023-03-04T01:00:40.688Z,101123.56
2023-03-04T01:03:07.130Z,101134.53
2023-03-04T01:05:35.859Z,101137.47
2023-03-04T01:08:02.924Z,101136.00
2023-03-04T01:10:29.636Z,101125.09
2023-03-04T01:12:56.078Z,101123.41
2023-03-04T01:15:22.753Z,101118.09
2023-03-04T01:17:49.242Z,101123.28
2023-03-04T01:20:16.658Z,101122.06
2023-03-04T01:22:43.133Z,101120.81
2023-03-04T01:25:09.912Z,101119.16
2023-03-04T01:27:36.356Z,101123.28
2023-03-04T01:30:03.907Z,101118.22
2023-03-04T01:32:30.431Z,101120.06
2023-03-04T01:34:56.890Z,101118.19
2023-03-04T01:37:23.338Z,101118.25
2023-03-04T01:39:49.731Z,101108.44
2023-03-04T01:42:22.098Z,101115.91
2023-03-04T01:44:51.118Z,101111.56
2023-03-04T01:47:19.115Z,101117.34
2023-03-04T01:49:50.950Z,101110.78
2023-03-04T01:52:17.422Z,101109.72
2023-03-04T01:54:43.841Z,101108.81
2023-03-04T01:57:22.580Z,101116.44
2023-03-04T02:00:19.694Z,101107.31
2023-03-04T02:02:48.142Z,101109.50
2023-03-04T02:05:15.049Z,101107.69
2023-03-04T02:07:42.357Z,101104.41
2023-03-04T02:10:10.253Z,101104.44
2023-03-04T02:12:36.754Z,101098.28
2023-03-04T02:15:04.179Z,101105.91
2023-03-04T02:17:32.455Z,101096.44
2023-03-04T02:20:24.006Z,101104.09
2023-03-04T02:23:43.377Z,101098.66
2023-03-04T02:26:24.441Z,101098.31
2023-03-04T02:28:52.747Z,101099.59
2023-03-04T02:31:30.120Z,101114.88
2023-03-04T02:33:59.632Z,101109.25
2023-03-04T02:36:26.564Z,101100.88
2023-03-04T02:38:54.665Z,101107.44
2023-03-04T02:41:25.004Z,101094.91
2023-03-04T02:43:53.638Z,101100.50
2023-03-04T02:46:20.407Z,101096.84
2023-03-04T02:48:46.920Z,101091.97
2023-03-04T02:51:13.342Z,101083.78
2023-03-04T02:53:39.780Z,101089.22
2023-03-04T02:56:06.556Z,101080.13
2023-03-04T02:58:33.169Z,101088.16
2023-03-04T03:00:59.964Z,101084.13
2023-03-04T03:03:26.480Z,101081.22
2023-03-04T03:05:54.324Z,101076.66
2023-03-04T03:08:20.863Z,101080.13
2023-03-04T03:10:47.295Z,101074.69
2023-03-04T03:13:13.734Z,101080.13
2023-03-04T03:15:42.296Z,101082.69
2023-03-04T03:18:12.040Z,101071.41
2023-03-04T03:20:38.503Z,101075.75
2023-03-04T03:23:05.337Z,101075.22
2023-03-04T03:25:31.778Z,101071.22
2023-03-04T03:27:58.202Z,101072.31
2023-03-04T03:30:24.652Z,101067.56
2023-03-04T03:32:51.286Z,101070.84
2023-03-04T03:35:18.279Z,101068.31
2023-03-04T03:37:44.816Z,101066.66
2023-03-04T03:40:12.141Z,101055.41
2023-03-04T03:42:38.571Z,101060.50
2023-03-04T03:45:05.463Z,101062.31
2023-03-04T03:47:32.319Z,101067.22
2023-03-04T03:49:58.739Z,101067.03
2023-03-04T03:52:25.284Z,101065.59
2023-03-04T03:54:51.743Z,101067.94
2023-03-04T03:57:18.170Z,101072.84
2023-03-04T03:59:44.622Z,101064.84
2023-03-04T04:02:11.142Z,101070.47
2023-03-04T04:04:37.611Z,101063.34
2023-03-04T04:07:04.142Z,101068.63
2023-03-04T04:09:30.577Z,101068.44
2023-03-04T04:11:57.000Z,101066.31
2023-03-04T04:14:23.484Z,101075.75
2023-03-04T04:16:49.954Z,101076.28
2023-03-04T04:19:20.403Z,101078.06
2023-03-04T04:21:47.369Z,101065.00
2023-03-04T04:24:13.883Z,101061.75
2023-03-04T04:26:40.854Z,101072.44
2023-03-04T04:29:07.455Z,101071.00
2023-03-04T04:31:33.972Z,101071.00
2023-03-04T04:34:00.703Z,101070.09
2023-03-04T04:36:27.731Z,101064.84
2023-03-04T04:38:54.169Z,101067.75
2023-03-04T04:41:23.717Z,101073.94
2023-03-04T04:43:50.540Z,101072.09
2023-03-04T04:46:17.555Z,101078.69
2023-03-04T04:48:44.570Z,101074.84
2023-03-04T04:51:12.219Z,101076.09
2023-03-04T04:53:38.878Z,101072.44
2023-03-04T04:56:16.907Z,101074.66
2023-03-04T04:58:43.727Z,101078.47
2023-03-04T05:01:10.629Z,101077.19
2023-03-04T05:03:38.094Z,101084.13
2023-03-04T05:06:06.899Z,101074.97
2023-03-04T05:08:34.070Z,101074.97
2023-03-04T05:11:01.175Z,101077.31
2023-03-04T05:13:28.123Z,101080.59
2023-03-04T05:16:22.300Z,101077.50
2023-03-04T05:18:48.796Z,101080.75
2023-03-04T05:21:15.407Z,101075.66
2023-03-04T05:23:43.403Z,101070.97
2023-03-04T05:26:13.204Z,101073.16
2023-03-04T05:28:39.616Z,101077.53
2023-03-04T05:31:06.268Z,101077.53
2023-03-04T05:33:33.082Z,101076.63
2023-03-04T05:35:59.784Z,101078.63
2023-03-04T05:38:26.899Z,101072.00
2023-03-04T05:40:59.138Z,101074.50
2023-03-04T05:43:27.880Z,101072.16
2023-03-04T05:45:55.482Z,101081.69
2023-03-04T05:48:22.082Z,101074.03
2023-03-04T05:50:54.157Z,101074.91
2023-03-04T05:53:20.608Z,101078.41
2023-03-04T05:55:47.761Z,101081.19
2023-03-04T05:58:14.742Z,101073.88
2023-03-04T06:00:41.286Z,101079.91
2023-03-04T06:03:13.627Z,101079.38
2023-03-04T06:05:40.064Z,101082.16
2023-03-04T06:08:06.622Z,101086.53
2023-03-04T06:10:38.238Z,101081.47
2023-03-04T06:13:04.813Z,101093.09
2023-03-04T06:15:32.208Z,101091.56
2023-03-04T06:17:58.688Z,101087.50
2023-03-04T06:20:25.150Z,101089.50
2023-03-04T06:22:51.637Z,101093.41
2023-03-04T06:25:18.137Z,101093.78
2023-03-04T06:27:44.577Z,101095.97
2023-03-04T06:30:11.648Z,101103.59
2023-03-04T06:32:38.113Z,101104.38
2023-03-04T06:35:05.157Z,101106.72
2023-03-04T06:37:31.658Z,101107.25
2023-03-04T06:39:58.059Z,101114.66
2023-03-04T06:42:24.622Z,101121.72
2023-03-04T06:44:51.093Z,101121.38
2023-03-04T06:47:18.829Z,101118.81
2023-03-04T06:49:45.360Z,101121.19
2023-03-04T06:52:12.944Z,101121.94
2023-03-04T06:54:40.458Z,101124.38
2023-03-04T06:57:07.626Z,101126.19
2023-03-04T06:59:34.171Z,101132.41
2023-03-04T07:02:00.704Z,101127.13
2023-03-04T07:04:27.304Z,101126.63
2023-03-04T07:06:54.102Z,101131.72
2023-03-04T07:09:20.759Z,101135.03
2023-03-04T07:11:47.166Z,101142.69
2023-03-04T07:14:13.984Z,101142.69
2023-03-04T07:16:40.832Z,101136.50
2023-03-04T07:19:07.464Z,101150.88
2023-03-04T07:21:34.069Z,101147.94
2023-03-04T07:24:00.918Z,101150.00
2023-03-04T07:26:27.492Z,101148.72
2023-03-04T07:28:54.625Z,101152.94
2023-03-04T07:31:25.008Z,101146.41
2023-03-04T07:33:52.233Z,101145.66
2023-03-04T07:36:19.885Z,101137.28
2023-03-04T07:38:48.422Z,101139.44
2023-03-04T07:41:15.633Z,101140.16
2023-03-04T07:43:42.742Z,101142.13
2023-03-04T07:46:10.303Z,101138.28
2023-03-04T07:48:37.341Z,101134.28
2023-03-04T07:51:12.568Z,101140.03
2023-03-04T07:53:41.417Z,101137.81
2023-03-04T07:56:11.088Z,101140.69
2023-03-04T07:58:37.710Z,101134.84
2023-03-04T08:01:19.358Z,101140.28
2023-03-04T08:03:45.827Z,101141.84
2023-03-04T08:06:15.006Z,101134.81
2023-03-04T08:08:43.128Z,101140.22
2023-03-04T08:11:12.918Z,101141.09
2023-03-04T08:13:39.860Z,101137.00
2023-03-04T08:16:07.445Z,101136.56
2023-03-04T08:18:34.243Z,101137.97
2023-03-04T08:21:00.852Z,101128.75
2023-03-04T08:23:27.455Z,101130.50
2023-03-04T08:25:54.437Z,101129.19
2023-03-04T08:28:20.974Z,101129.38
2023-03-04T08:30:53.764Z,101123.84
2023-03-04T08:33:20.503Z,101121.84
2023-03-04T08:35:47.305Z,101122.03
2023-03-04T08:38:13.940Z,101118.00
2023-03-04T08:40:40.429Z,101116.38
2023-03-04T08:43:06.930Z,101120.09
2023-03-04T08:45:33.413Z,101119.75
2023-03-04T08:47:59.933Z,101113.31
2023-03-04T08:50:27.527Z,101118.53
2023-03-04T08:52:54.212Z,101119.53
2023-03-04T08:55:20.777Z,101116.69
2023-03-04T08:57:47.282Z,101119.34
2023-03-04T09:00:14.162Z,101108.56
2023-03-04T09:02:40.620Z,101111.69
2023-03-04T09:05:07.875Z,101108.53
2023-03-04T09:07:34.343Z,101121.75
2023-03-04T09:10:00.847Z,101112.31
2023-03-04T09:12:27.448Z,101115.34
2023-03-04T09:15:08.653Z,101114.06
2023-03-04T09:17:37.369Z,101107.97
2023-03-04T09:20:04.786Z,101105.41
2023-03-04T09:22:31.430Z,101107.38
2023-03-04T09:24:57.856Z,101106.69
2023-03-04T09:27:24.433Z,101104.50
2023-03-04T09:29:50.852Z,101103.50
2023-03-04T09:32:17.492Z,101105.47
2023-03-04T09:34:43.953Z,101103.38
2023-03-04T09:37:10.455Z,101096.16
2023-03-04T09:39:37.091Z,101091.34
2023-03-04T09:42:06.801Z,101091.81
2023-03-04T09:44:37.751Z,101093.63
2023-03-04T09:47:11.591Z,101088.66
2023-03-04T09:49:42.159Z,101096.03
2023-03-04T09:52:20.897Z,101090.00
2023-03-04T09:55:06.143Z,101087.28
2023-03-04T09:57:57.521Z,101081.19
2023-03-04T10:00:24.113Z,101083.56
2023-03-04T10:02:59.947Z,101073.09
2023-03-04T10:05:30.024Z,101075.66
2023-03-04T10:07:59.555Z,101068.41
2023-03-04T10:10:31.958Z,101071.59
2023-03-04T10:13:00.764Z,101073.69
2023-03-04T10:15:48.099Z,101067.25
2023-03-04T10:18:22.006Z,101071.06
2023-03-04T10:21:00.589Z,101069.66
2023-03-04T10:23:29.782Z,101069.47
2023-03-04T10:25:56.587Z,101068.53
2023-03-04T10:28:29.273Z,101065.28
2023-03-04T10:31:14.269Z,101062.34
2023-03-04T10:33:41.050Z,101058.94
2023-03-04T10:36:19.620Z,101056.72
2023-03-04T10:38:46.088Z,101044.50
2023-03-04T10:41:26.015Z,101046.22
2023-03-04T10:43:58.490Z,101043.41
2023-03-04T10:46:25.460Z,101036.19
2023-03-04T10:48:53.392Z,101028.44
2023-03-04T10:51:23.206Z,101026.66
2023-03-04T10:53:52.483Z,101028.19
2023-03-04T10:56:31.941Z,101025.84
2023-03-04T10:59:32.280Z,101014.66
2023-03-04T11:02:00.486Z,101019.72
2023-03-04T11:04:32.383Z,101018.72
2023-03-04T11:06:58.818Z,101012.38
2023-03-04T11:09:28.320Z,101007.91
2023-03-04T11:11:58.995Z,101001.59
2023-03-04T11:14:34.836Z,101006.09
2023-03-04T11:17:15.688Z,100997.81
2023-03-04T11:19:45.634Z,100991.13
2023-03-04T11:22:16.409Z,100992.03
2023-03-04T11:24:43.976Z,100987.25
2023-03-04T11:27:18.699Z,100980.28
2023-03-04T11:30:13.494Z,100985.97
2023-03-04T11:32:43.615Z,100974.88
2023-03-04T11:35:21.644Z,100971.78
2023-03-04T11:37:59.528Z,100973.06
2023-03-04T11:40:44.594Z,100968.38
2023-03-04T11:43:18.838Z,100962.03
2023-03-04T11:45:54.484Z,100949.38
2023-03-04T11:48:48.769Z,100947.34
2023-03-04T11:51:45.639Z,100942.91
2023-03-04T11:54:35.875Z,100937.19
2023-03-04T11:57:38.457Z,100932.47
2023-03-04T12:00:20.158Z,100929.16
2023-03-04T12:03:13.109Z,100925.72
2023-03-04T12:05:51.562Z,100912.22
2023-03-04T12:08:28.157Z,100915.88
2023-03-04T12:11:08.301Z,100912.34
2023-03-04T12:13:59.984Z,100907.00
2023-03-04T12:17:01.798Z,100904.72
2023-03-04T12:19:35.102Z,100897.47
2023-03-04T12:22:28.137Z,100888.31
2023-03-04T12:25:12.837Z,100883.00
2023-03-04T12:27:48.556Z,100881.06
2023-03-04T12:30:52.842Z,100865.78
2023-03-04T12:33:39.120Z,100866.50
2023-03-04T12:36:26.773Z,100855.13
2023-03-04T12:39:19.546Z,100850.66
2023-03-04T12:42:23.757Z,100849.94
2023-03-04T12:45:16.633Z,100846.47
2023-03-04T12:48:21.554Z,100842.75
2023-03-04T12:51:11.893Z,100836.88
2023-03-04T12:53:59.612Z,100832.50
2023-03-04T12:56:44.651Z,100822.56
2023-03-04T12:59:18.260Z,100824.28
2023-03-04T13:02:09.170Z,100824.28
2023-03-04T13:05:16.697Z,100821.16
2023-03-04T13:08:08.505Z,100817.00
2023-03-04T13:10:35.891Z,100807.63
2023-03-04T13:13:03.668Z,100803.34
2023-03-04T13:15:35.923Z,100799.53
2023-03-04T13:18:24.300Z,100803.59
2023-03-04T13:21:10.203Z,100804.97
2023-03-04T13:23:36.839Z,100793.25
2023-03-04T13:26:03.438Z,100796.19
2023-03-04T13:28:32.466Z,100795.38
2023-03-04T13:30:59.537Z,100785.97
2023-03-04T13:33:25.983Z,100787.28
2023-03-04T13:36:09.097Z,100780.72
2023-03-04T13:38:38.319Z,100781.97
2023-03-04T13:41:20.214Z,100781.81
2023-03-04T13:43:47.655Z,100770.22
2023-03-04T13:46:20.354Z,100766.50
2023-03-04T13:48:49.642Z,100760.59
2023-03-04T13:51:31.587Z,100763.72
2023-03-04T13:54:00.901Z,100757.91
2023-03-04T13:56:29.264Z,100756.56
2023-03-04T13:59:20.028Z,100754.31
2023-03-04T14:01:46.412Z,100756.00
2023-03-04T14:04:37.604Z,100753.72
2023-03-04T14:07:18.334Z,100753.38
2023-03-04T14:10:07.712Z,100740.19
2023-03-04T14:12:48.945Z,100732.59
2023-03-04T14:15:24.618Z,100740.00
2023-03-04T14:18:01.082Z,100733.28
2023-03-04T14:22:57.052Z,100722.22
2023-03-04T14:25:29.370Z,100719.56
2023-03-04T14:28:22.033Z,100722.25
2023-03-04T14:30:53.655Z,100720.19
2023-03-04T14:33:28.921Z,100711.66
2023-03-04T14:35:59.290Z,100713.53
2023-03-04T14:38:30.968Z,100712.56
2023-03-04T14:41:34.283Z,100710.00
2023-03-04T14:44:21.636Z,100708.06
2023-03-04T14:47:06.102Z,100706.28
2023-03-04T14:49:36.387Z,100706.34
2023-03-04T14:52:03.233Z,100703.88
2023-03-04T14:54:34.038Z,100694.19
2023-03-04T14:57:21.197Z,100692.84
2023-03-04T14:59:47.732Z,100689.91
2023-03-04T15:02:31.108Z,100689.13
2023-03-04T15:05:16.485Z,100685.78
2023-03-04T15:07:49.625Z,100682.84
2023-03-04T15:10:22.558Z,100681.84
2023-03-04T15:12:55.166Z,100683.66
2023-03-04T15:15:42.865Z,100676.75
2023-03-04T15:18:23.706Z,100675.88
2023-03-04T15:21:05.564Z,100671.16
2023-03-04T15:23:33.579Z,100671.34
2023-03-04T15:26:03.152Z,100660.78
2023-03-04T15:28:37.714Z,100663.38
2023-03-04T15:31:05.585Z,100662.19
2023-03-04T15:33:32.402Z,100667.13
2023-03-04T15:36:01.691Z,100654.97
2023-03-04T15:38:29.322Z,100651.00
2023-03-04T15:40:58.359Z,100654.03
2023-03-04T15:43:25.342Z,100650.66
2023-03-04T15:45:53.014Z,100654.41
2023-03-04T15:48:19.872Z,100650.56
2023-03-04T15:51:01.621Z,100652.88
2023-03-04T15:53:39.569Z,100649.19
2023-03-04T15:56:11.855Z,100647.38
2023-03-04T15:58:39.433Z,100648.31
2023-03-04T16:01:06.472Z,100646.69
2023-03-04T16:03:33.155Z,100649.59
2023-03-04T16:06:00.109Z,100655.56
2023-03-04T16:08:26.703Z,100650.81
2023-03-04T16:10:54.703Z,100641.94
2023-03-04T16:13:23.393Z,100646.59
2023-03-04T16:15:50.254Z,100643.13
2023-03-04T16:18:17.289Z,100644.56
2023-03-04T16:20:47.118Z,100639.97
2023-03-04T16:23:17.180Z,100639.97
2023-03-04T16:25:45.566Z,100638.94
2023-03-04T16:28:12.611Z,100637.03
2023-03-04T16:30:39.606Z,100632.38
2023-03-04T16:33:06.145Z,100634.59
2023-03-04T16:35:35.754Z,100638.38
2023-03-04T16:38:02.402Z,100630.81
2023-03-04T16:40:30.962Z,100630.56
2023-03-04T16:42:57.538Z,100637.81
2023-03-04T16:45:30.306Z,100630.38
2023-03-04T16:47:56.893Z,100636.94
2023-03-04T16:50:27.419Z,100638.41
2023-03-04T16:52:55.745Z,100633.88
2023-03-04T16:55:27.494Z,100626.78
2023-03-04T16:57:55.828Z,100629.66
2023-03-04T17:00:26.969Z,100631.75
2023-03-04T17:02:57.211Z,100626.84
2023-03-04T17:05:26.259Z,100628.78
2023-03-04T17:07:52.832Z,100622.88
2023-03-04T17:10:19.491Z,100629.19
2023-03-04T17:12:45.971Z,100624.31
2023-03-04T17:15:14.359Z,100615.81
2023-03-04T17:17:41.932Z,100617.63
2023-03-04T17:20:10.988Z,100627.66
2023-03-04T17:22:37.605Z,100626.38
2023-03-04T17:25:04.688Z,100622.53
2023-03-04T17:27:31.491Z,100629.88
2023-03-04T17:29:57.938Z,100631.19
2023-03-04T17:32:26.048Z,100623.97
2023-03-04T17:34:55.663Z,100627.81
2023-03-04T17:37:22.190Z,100626.50
2023-03-04T17:39:48.623Z,100621.25
2023-03-04T17:42:15.142Z,100619.19
2023-03-04T17:44:42.138Z,100632.56
2023-03-04T17:47:08.769Z,100634.59
2023-03-04T17:49:35.236Z,100630.59
2023-03-04T17:52:04.041Z,100634.06
2023-03-04T17:54:30.828Z,100641.72
2023-03-04T17:56:57.465Z,100646.06
2023-03-04T17:59:24.256Z,100646.44
2023-03-04T18:01:53.972Z,100640.81
2023-03-04T18:04:20.971Z,100646.66
2023-03-04T18:06:47.707Z,100641.53
2023-03-04T18:09:14.116Z,100655.34
2023-03-04T18:11:41.754Z,100649.56
2023-03-04T18:14:08.915Z,100651.69
2023-03-04T18:16:35.576Z,100646.22
2023-03-04T18:19:02.663Z,100651.66
2023-03-04T18:21:30.052Z,100646.09
2023-03-04T18:23:57.022Z,100649.34
2023-03-04T18:26:24.205Z,100649.97
2023-03-04T18:28:51.943Z,100645.31
2023-03-04T18:31:24.281Z,100647.38
2023-03-04T18:33:51.815Z,100650.75
2023-03-04T18:36:18.355Z,100651.94
2023-03-04T18:38:44.807Z,100648.31
2023-03-04T18:41:14.102Z,100647.81
2023-03-04T18:43:40.723Z,100641.94
2023-03-04T18:46:22.362Z,100639.25
2023-03-04T18:48:54.595Z,100642.66
2023-03-04T18:51:21.221Z,100640.81
2023-03-04T18:53:47.841Z,100638.75
2023-03-04T18:56:20.483Z,100636.84
2023-03-04T18:58:49.019Z,100633.69
2023-03-04T19:01:18.923Z,100638.84
2023-03-04T19:03:46.012Z,100637.28
2023-03-04T19:06:12.776Z,100643.28
2023-03-04T19:08:39.227Z,100644.00
2023-03-04T19:11:08.482Z,100643.78
2023-03-04T19:13:35.014Z,100645.47
2023-03-04T19:16:01.534Z,100640.38
2023-03-04T19:18:29.300Z,100636.72
2023-03-04T19:20:58.484Z,100641.81
2023-03-04T19:23:24.898Z,100641.63
2023-03-04T19:25:51.322Z,100646.03
2023-03-04T19:28:17.780Z,100645.28
2023-03-04T19:30:44.222Z,100652.44
2023-03-04T19:33:10.721Z,100646.41
2023-03-04T19:35:41.898Z,100640.81
2023-03-04T19:38:08.968Z,100647.31
2023-03-04T19:40:40.299Z,100645.84
2023-03-04T19:43:07.315Z,100649.03
2023-03-04T19:45:34.339Z,100647.81
2023-03-04T19:48:02.839Z,100648.44
2023-03-04T19:50:29.903Z,100655.53
2023-03-04T19:52:56.446Z,100652.81
2023-03-04T19:55:23.013Z,100653.16
2023-03-04T19:57:49.526Z,100661.75
2023-03-04T20:00:16.836Z,100662.84
2023-03-04T20:02:45.549Z,100663.44
2023-03-04T20:05:13.515Z,100666.16
2023-03-04T20:07:40.431Z,100668.59
2023-03-04T20:10:07.731Z,100673.13
2023-03-04T20:12:36.209Z,100663.78
2023-03-04T20:15:05.046Z,100673.75
2023-03-04T20:17:31.580Z,100671.50
2023-03-04T20:19:58.126Z,100669.50
2023-03-04T20:22:24.662Z,100678.56
2023-03-04T20:24:51.365Z,100664.69
2023-03-04T20:27:18.092Z,100668.63
2023-03-04T20:29:45.329Z,100672.84
2023-03-04T20:32:12.189Z,100671.34
2023-03-04T20:34:38.789Z,100673.44
2023-03-04T20:37:05.284Z,100671.06
2023-03-04T20:39:31.882Z,100668.94
2023-03-04T20:41:59.271Z,100673.28
2023-03-04T20:44:26.736Z,100675.41
2023-03-04T20:46:53.435Z,100679.16
2023-03-04T20:49:24.210Z,100674.97
2023-03-04T20:51:53.475Z,100679.75
2023-03-04T20:54:20.622Z,100680.66
2023-03-04T20:56:47.615Z,100684.88
2023-03-04T20:59:14.369Z,100680.97
2023-03-04T21:01:43.744Z,100681.41
2023-03-04T21:04:10.574Z,100680.97
2023-03-04T21:06:38.786Z,100679.91
2023-03-04T21:09:09.131Z,100682.78
2023-03-04T21:11:40.379Z,100682.75
2023-03-04T21:14:16.243Z,100685.56
2023-03-04T21:16:43.133Z,100685.22
2023-03-04T21:19:16.790Z,100683.13
2023-03-04T21:21:43.901Z,100686.53
2023-03-04T21:24:14.328Z,100682.06
2023-03-04T21:26:43.069Z,100678.50
2023-03-04T21:29:09.646Z,100682.34
2023-03-04T21:31:40.081Z,100682.03
2023-03-04T21:34:14.708Z,100680.31
2023-03-04T21:36:41.270Z,100680.22
2023-03-04T21:39:08.160Z,100682.09
2023-03-04T21:41:34.707Z,100680.88
2023-03-04T21:44:01.400Z,100682.53
2023-03-04T21:46:27.896Z,100678.72
2023-03-04T21:48:54.426Z,100683.84
2023-03-04T21:51:20.882Z,100683.84
2023-03-04T21:53:47.283Z,100687.13
2023-03-04T21:56:13.813Z,100685.31
2023-03-04T21:58:42.854Z,100683.97
2023-03-04T22:01:18.635Z,100687.25
2023-03-04T22:03:45.912Z,100688.94
2023-03-04T22:06:13.323Z,100685.09
2023-03-04T22:08:39.909Z,100681.59
2023-03-04T22:11:08.667Z,100684.84
2023-03-04T22:13:35.474Z,100680.34
2023-03-04T22:16:02.081Z,100687.84
2023-03-04T22:18:28.727Z,100682.66
2023-03-04T22:21:16.630Z,100685.63
2023-03-04T22:23:43.381Z,100682.13
2023-03-04T22:26:15.844Z,100685.78
2023-03-04T22:28:43.265Z,100688.38
2023-03-04T22:31:30.646Z,100689.59
2023-03-04T22:34:01.879Z,100691.41
2023-03-04T22:36:29.415Z,100691.19
2023-03-04T22:38:56.363Z,100697.09
2023-03-04T22:41:22.916Z,100687.97
2023-03-04T22:43:49.814Z,100688.06
2023-03-04T22:46:27.944Z,100690.41
2023-03-04T22:48:56.829Z,100686.25
2023-03-04T22:51:23.312Z,100686.06
2023-03-04T22:53:51.261Z,100688.06
2023-03-04T22:56:21.059Z,100684.22
2023-03-04T22:58:48.578Z,100689.41
2023-03-04T23:01:17.974Z,100689.63
2023-03-04T23:03:45.735Z,100691.28
2023-03-04T23:06:13.892Z,100684.13
2023-03-04T23:08:42.763Z,100687.25
2023-03-04T23:11:15.666Z,100688.41
2023-03-04T23:13:42.644Z,100694.72
2023-03-04T23:16:11.267Z,100693.72
2023-03-04T23:18:39.721Z,100697.72
2023-03-04T23:21:21.384Z,100695.34
2023-03-04T23:23:48.024Z,100695.09
2023-03-04T23:26:26.534Z,100701.38
2023-03-04T23:28:55.574Z,100691.50
2023-03-04T23:31:22.565Z,100696.63
2023-03-04T23:33:49.295Z,100695.31
2023-03-04T23:36:18.787Z,100692.41
2023-03-04T23:38:48.466Z,100690.00
2023-03-04T23:41:17.713Z,100683.50
2023-03-04T23:43:44.348Z,100685.97
2023-03-04T23:46:13.671Z,100685.16
2023-03-04T23:48:43.115Z,100681.84
2023-03-04T23:51:10.537Z,100681.63
2023-03-04T23:53:38.980Z,100683.78
2023-03-04T23:56:21.302Z,100681.06
2023-03-04T23:58:48.277Z,100679.22
